createdAt,value
2016-07-11T00:00:03.548Z,0
2016-07-11T00:01:03.558Z,0
2016-07-11T00:02:02.953Z,0
2016-07-11T00:03:04.183Z,0
2016-07-11T00:04:02.966Z,0
2016-07-11T00:05:03.634Z,0
2016-07-11T00:06:02.996Z,0
2016-07-11T00:07:05.021Z,0
2016-07-11T00:08:02.995Z,0
2016-07-11T00:09:02.386Z,0
2016-07-11T00:10:03.620Z,0
2016-07-11T00:11:03.626Z,0
2016-07-11T00:12:04.250Z,0
2016-07-11T00:13:03.643Z,0
2016-07-11T00:14:04.261Z,0
2016-07-11T00:15:03.044Z,0
2016-07-11T00:16:04.278Z,0
2016-07-11T00:17:03.061Z,0
2016-07-11T00:18:04.322Z,0
2016-07-11T00:19:03.690Z,0
2016-07-11T00:20:03.481Z,0
2016-07-11T00:21:03.704Z,0
2016-07-11T00:22:03.705Z,0
2016-07-11T00:23:03.759Z,0
2016-07-11T00:24:02.599Z,0
2016-07-11T00:25:03.779Z,0
2016-07-11T00:26:03.735Z,0
2016-07-11T00:27:03.746Z,0
2016-07-11T00:28:03.758Z,0
2016-07-11T00:29:02.537Z,0
2016-07-11T00:30:04.378Z,0
2016-07-11T00:31:03.776Z,0
2016-07-11T00:32:04.387Z,0
2016-07-11T00:33:04.401Z,0
2016-07-11T00:34:03.794Z,0
2016-07-11T00:35:04.411Z,0
2016-07-11T00:36:04.419Z,0
2016-07-11T00:37:03.815Z,0
2016-07-11T00:38:03.211Z,0
2016-07-11T00:39:03.828Z,0
2016-07-11T00:40:04.539Z,0
2016-07-11T00:41:03.839Z,0
2016-07-11T00:42:03.238Z,0
2016-07-11T00:43:03.862Z,0
2016-07-11T00:44:03.863Z,0
2016-07-11T00:45:03.872Z,0
2016-07-11T00:46:03.265Z,0
2016-07-11T00:47:04.514Z,0
2016-07-11T00:48:04.507Z,0
2016-07-11T00:49:03.288Z,0
2016-07-11T00:50:03.908Z,0
2016-07-11T00:51:04.207Z,0
2016-07-11T00:52:02.694Z,0
2016-07-11T00:53:03.932Z,0
2016-07-11T00:54:03.935Z,0
2016-07-11T00:55:03.330Z,0
2016-07-11T00:56:03.951Z,0
2016-07-11T00:57:04.579Z,0
2016-07-11T00:58:03.964Z,0
2016-07-11T00:59:03.359Z,0
2016-07-11T01:00:03.979Z,0
2016-07-11T01:01:03.377Z,0
2016-07-11T01:02:04.093Z,0
2016-07-11T01:03:03.384Z,0
2016-07-11T01:04:04.882Z,0
2016-07-11T01:05:03.410Z,0
2016-07-11T01:06:04.206Z,0
2016-07-11T01:07:04.032Z,0
2016-07-11T01:08:04.037Z,0
2016-07-11T01:09:04.043Z,0
2016-07-11T01:10:04.048Z,0
2016-07-11T01:11:04.060Z,0
2016-07-11T01:12:04.072Z,0
2016-07-11T01:13:04.070Z,0
2016-07-11T01:14:04.079Z,0
2016-07-11T01:15:05.176Z,0
2016-07-11T01:16:03.480Z,0
2016-07-11T01:17:04.097Z,0
2016-07-11T01:18:04.114Z,0
2016-07-11T01:19:03.500Z,0
2016-07-11T01:20:04.123Z,0
2016-07-11T01:21:04.130Z,0
2016-07-11T01:22:03.530Z,0
2016-07-11T01:23:04.144Z,0
2016-07-11T01:24:04.298Z,0
2016-07-11T01:25:04.206Z,0
2016-07-11T01:26:05.375Z,0
2016-07-11T01:27:03.557Z,0
2016-07-11T01:28:04.480Z,0
2016-07-11T01:29:04.183Z,0
2016-07-11T01:30:03.585Z,0
2016-07-11T01:31:04.813Z,0
2016-07-11T01:32:04.818Z,0
2016-07-11T01:33:04.826Z,0
2016-07-11T01:34:03.611Z,0
2016-07-11T01:35:04.227Z,0
2016-07-11T01:36:04.846Z,0
2016-07-11T01:37:04.979Z,0
2016-07-11T01:38:04.860Z,0
2016-07-11T01:39:04.253Z,0
2016-07-11T01:40:04.872Z,0
2016-07-11T01:41:04.266Z,0
2016-07-11T01:42:04.295Z,0
2016-07-11T01:43:04.284Z,0
2016-07-11T01:44:03.679Z,0
2016-07-11T01:45:04.298Z,0
2016-07-11T01:46:03.690Z,0
2016-07-11T01:47:04.312Z,0
2016-07-11T01:48:04.345Z,0
2016-07-11T01:49:04.319Z,0
2016-07-11T01:50:03.461Z,0
2016-07-11T01:51:04.954Z,0
2016-07-11T01:52:04.799Z,0
2016-07-11T01:53:04.359Z,0
2016-07-11T01:54:04.980Z,0
2016-07-11T01:55:04.974Z,0
2016-07-11T01:56:04.377Z,0
2016-07-11T01:57:03.782Z,0
2016-07-11T01:58:05.000Z,0
2016-07-11T01:59:03.871Z,0
2016-07-11T02:00:04.401Z,0
2016-07-11T02:01:03.797Z,0
2016-07-11T02:02:04.416Z,0
2016-07-11T02:03:05.045Z,0
2016-07-11T02:04:04.432Z,0
2016-07-11T02:05:05.049Z,0
2016-07-11T02:06:04.452Z,0
2016-07-11T02:07:03.847Z,0
2016-07-11T02:08:03.848Z,0
2016-07-11T02:09:03.858Z,0
2016-07-11T02:10:04.023Z,0
2016-07-11T02:11:05.088Z,0
2016-07-11T02:12:06.070Z,0
2016-07-11T02:13:04.495Z,0
2016-07-11T02:14:04.687Z,0
2016-07-11T02:15:03.283Z,0
2016-07-11T02:16:04.519Z,0
2016-07-11T02:17:05.133Z,0
2016-07-11T02:18:04.531Z,0
2016-07-11T02:19:04.531Z,0
2016-07-11T02:20:03.926Z,0
2016-07-11T02:21:05.163Z,0
2016-07-11T02:22:03.331Z,0
2016-07-11T02:23:06.023Z,0
2016-07-11T02:24:04.620Z,0
2016-07-11T02:25:04.007Z,0
2016-07-11T02:26:04.579Z,0
2016-07-11T02:27:03.978Z,0
2016-07-11T02:28:03.995Z,0
2016-07-11T02:29:04.602Z,0
2016-07-11T02:30:04.001Z,0
2016-07-11T02:31:04.620Z,0
2016-07-11T02:32:04.624Z,0
2016-07-11T02:33:04.646Z,0
2016-07-11T02:34:06.209Z,0
2016-07-11T02:35:04.649Z,0
2016-07-11T02:36:06.252Z,0
2016-07-11T02:37:04.046Z,0
2016-07-11T02:38:05.580Z,0
2016-07-11T02:39:04.063Z,0
2016-07-11T02:40:04.681Z,0
2016-07-11T02:41:04.694Z,0
2016-07-11T02:42:04.082Z,0
2016-07-11T02:43:03.482Z,0
2016-07-11T02:44:04.100Z,0
2016-07-11T02:45:05.167Z,0
2016-07-11T02:46:04.730Z,0
2016-07-11T02:47:04.116Z,0
2016-07-11T02:48:05.353Z,0
2016-07-11T02:49:05.694Z,0
2016-07-11T02:50:04.757Z,0
2016-07-11T02:51:04.760Z,0
2016-07-11T02:52:04.154Z,0
2016-07-11T02:53:03.551Z,0
2016-07-11T02:54:04.168Z,0
2016-07-11T02:55:04.787Z,0
2016-07-11T02:56:04.833Z,0
2016-07-11T02:57:04.800Z,0
2016-07-11T02:58:06.201Z,0
2016-07-11T02:59:04.814Z,0
2016-07-11T03:00:05.409Z,0
2016-07-11T03:01:03.608Z,0
2016-07-11T03:02:04.227Z,0
2016-07-11T03:03:03.618Z,0
2016-07-11T03:04:04.851Z,0
2016-07-11T03:05:04.857Z,0
2016-07-11T03:06:04.867Z,0
2016-07-11T03:07:04.872Z,0
2016-07-11T03:08:04.267Z,0
2016-07-11T03:09:04.286Z,0
2016-07-11T03:10:04.893Z,0
2016-07-11T03:11:04.791Z,0
2016-07-11T03:12:04.294Z,0
2016-07-11T03:13:04.917Z,0
2016-07-11T03:14:04.310Z,4
2016-07-11T03:15:04.927Z,4
2016-07-11T03:16:04.325Z,4
2016-07-11T03:17:05.567Z,4
2016-07-11T03:18:04.954Z,4
2016-07-11T03:19:04.958Z,4
2016-07-11T03:20:06.391Z,4
2016-07-11T03:21:04.977Z,4
2016-07-11T03:22:05.594Z,4
2016-07-11T03:23:04.375Z,4
2016-07-11T03:24:04.995Z,4
2016-07-11T03:25:05.100Z,4
2016-07-11T03:26:05.014Z,4
2016-07-11T03:27:04.404Z,4
2016-07-11T03:28:05.078Z,8
2016-07-11T03:29:04.466Z,8
2016-07-11T03:30:05.034Z,4
2016-07-11T03:31:05.332Z,8
2016-07-11T03:32:05.051Z,8
2016-07-11T03:33:05.155Z,8
2016-07-11T03:34:05.678Z,8
2016-07-11T03:35:04.463Z,8
2016-07-11T03:36:05.077Z,8
2016-07-11T03:37:05.702Z,8
2016-07-11T03:38:05.710Z,8
2016-07-11T03:39:05.709Z,4
2016-07-11T03:40:05.105Z,4
2016-07-11T03:41:05.723Z,8
2016-07-11T03:42:06.124Z,8
2016-07-11T03:43:05.740Z,8
2016-07-11T03:44:06.722Z,8
2016-07-11T03:45:04.531Z,12
2016-07-11T03:46:04.548Z,12
2016-07-11T03:47:04.539Z,16
2016-07-11T03:48:03.937Z,20
2016-07-11T03:49:05.173Z,20
2016-07-11T03:50:05.791Z,24
2016-07-11T03:51:04.573Z,24
2016-07-11T03:52:05.190Z,20
2016-07-11T03:53:05.199Z,16
2016-07-11T03:54:05.206Z,20
2016-07-11T03:55:04.597Z,24
2016-07-11T03:56:04.608Z,32
2016-07-11T03:57:06.327Z,28
2016-07-11T03:58:04.623Z,32
2016-07-11T03:59:04.631Z,40
2016-07-11T04:00:05.245Z,40
2016-07-11T04:01:05.871Z,44
2016-07-11T04:02:05.258Z,40
2016-07-11T04:03:05.270Z,44
2016-07-11T04:04:04.665Z,44
2016-07-11T04:05:04.673Z,44
2016-07-11T04:06:04.611Z,44
2016-07-11T04:07:05.300Z,48
2016-07-11T04:08:05.958Z,44
2016-07-11T04:09:05.920Z,44
2016-07-11T04:10:04.708Z,44
2016-07-11T04:11:05.330Z,48
2016-07-11T04:12:04.723Z,48
2016-07-11T04:13:05.952Z,52
2016-07-11T04:14:05.348Z,68
2016-07-11T04:15:04.738Z,104
2016-07-11T04:16:04.748Z,116
2016-07-11T04:17:05.370Z,104
2016-07-11T04:18:05.381Z,92
2016-07-11T04:19:05.935Z,120
2016-07-11T04:20:04.777Z,108
2016-07-11T04:21:05.398Z,92
2016-07-11T04:22:04.790Z,80
2016-07-11T04:23:04.797Z,80
2016-07-11T04:24:05.642Z,84
2016-07-11T04:25:04.809Z,96
2016-07-11T04:26:04.253Z,116
2016-07-11T04:27:05.443Z,152
2016-07-11T04:28:04.880Z,184
2016-07-11T04:29:04.840Z,228
2016-07-11T04:30:05.907Z,240
2016-07-11T04:31:06.074Z,200
2016-07-11T04:32:07.360Z,196
2016-07-11T04:33:05.481Z,152
2016-07-11T04:34:04.260Z,140
2016-07-11T04:35:04.270Z,132
2016-07-11T04:36:05.499Z,120
2016-07-11T04:37:06.118Z,116
2016-07-11T04:38:05.515Z,100
2016-07-11T04:39:05.521Z,104
2016-07-11T04:40:05.526Z,132
2016-07-11T04:41:06.551Z,140
2016-07-11T04:42:04.936Z,144
2016-07-11T04:43:04.937Z,152
2016-07-11T04:44:04.952Z,168
2016-07-11T04:45:04.951Z,184
2016-07-11T04:46:05.576Z,132
2016-07-11T04:47:04.975Z,128
2016-07-11T04:48:06.203Z,144
2016-07-11T04:49:05.594Z,184
2016-07-11T04:50:06.213Z,148
2016-07-11T04:51:05.606Z,156
2016-07-11T04:52:05.616Z,156
2016-07-11T04:53:06.231Z,216
2016-07-11T04:54:07.002Z,228
2016-07-11T04:55:05.634Z,224
2016-07-11T04:56:05.640Z,280
2016-07-11T04:57:05.645Z,372
2016-07-11T04:58:06.272Z,416
2016-07-11T04:59:06.272Z,396
2016-07-11T05:00:05.060Z,404
2016-07-11T05:01:05.678Z,528
2016-07-11T05:02:05.068Z,520
2016-07-11T05:03:05.889Z,612
2016-07-11T05:04:06.318Z,720
2016-07-11T05:05:06.447Z,724
2016-07-11T05:06:05.714Z,564
2016-07-11T05:07:05.765Z,576
2016-07-11T05:08:05.725Z,608
2016-07-11T05:09:05.121Z,620
2016-07-11T05:10:06.352Z,652
2016-07-11T05:11:05.743Z,744
2016-07-11T05:12:05.140Z,964
2016-07-11T05:13:05.763Z,1244
2016-07-11T05:14:06.383Z,1068
2016-07-11T05:15:06.385Z,856
2016-07-11T05:16:07.031Z,1000
2016-07-11T05:17:05.790Z,1076
2016-07-11T05:18:05.423Z,1040
2016-07-11T05:19:05.806Z,1024
2016-07-11T05:20:06.424Z,1164
2016-07-11T05:21:06.432Z,1424
2016-07-11T05:22:05.214Z,5504
2016-07-11T05:23:06.449Z,1212
2016-07-11T05:24:05.841Z,2148
2016-07-11T05:25:06.460Z,1084
2016-07-11T05:26:05.242Z,1224
2016-07-11T05:27:07.102Z,1488
2016-07-11T05:28:05.261Z,1292
2016-07-11T05:29:05.701Z,1276
2016-07-11T05:30:05.934Z,1136
2016-07-11T05:31:05.889Z,1196
2016-07-11T05:32:06.507Z,1384
2016-07-11T05:33:06.513Z,680
2016-07-11T05:34:05.301Z,1116
2016-07-11T05:35:05.919Z,524
2016-07-11T05:36:06.538Z,548
2016-07-11T05:37:05.939Z,576
2016-07-11T05:38:05.328Z,628
2016-07-11T05:39:05.342Z,640
2016-07-11T05:40:06.019Z,752
2016-07-11T05:41:05.355Z,804
2016-07-11T05:42:05.361Z,740
2016-07-11T05:43:06.588Z,792
2016-07-11T05:44:05.983Z,928
2016-07-11T05:45:05.991Z,848
2016-07-11T05:46:06.005Z,792
2016-07-11T05:47:05.397Z,600
2016-07-11T05:48:05.399Z,580
2016-07-11T05:49:06.976Z,692
2016-07-11T05:50:06.642Z,704
2016-07-11T05:51:06.186Z,608
2016-07-11T05:52:06.655Z,608
2016-07-11T05:53:07.054Z,604
2016-07-11T05:54:06.059Z,680
2016-07-11T05:55:04.841Z,740
2016-07-11T05:56:06.073Z,1200
2016-07-11T05:57:05.466Z,1588
2016-07-11T05:58:06.085Z,2192
2016-07-11T05:59:05.490Z,2556
2016-07-11T06:00:05.940Z,1816
2016-07-11T06:01:06.112Z,2672
2016-07-11T06:02:05.504Z,2420
2016-07-11T06:03:06.127Z,1368
2016-07-11T06:04:06.634Z,1120
2016-07-11T06:05:06.156Z,880
2016-07-11T06:06:06.143Z,972
2016-07-11T06:07:06.767Z,1020
2016-07-11T06:08:06.173Z,948
2016-07-11T06:09:04.941Z,952
2016-07-11T06:10:06.176Z,896
2016-07-11T06:11:06.837Z,932
2016-07-11T06:12:05.576Z,536
2016-07-11T06:13:06.195Z,404
2016-07-11T06:14:06.211Z,380
2016-07-11T06:15:06.856Z,396
2016-07-11T06:16:05.608Z,432
2016-07-11T06:17:06.836Z,504
2016-07-11T06:18:05.009Z,528
2016-07-11T06:19:05.627Z,528
2016-07-11T06:20:05.639Z,504
2016-07-11T06:21:05.649Z,508
2016-07-11T06:22:05.041Z,524
2016-07-11T06:23:06.895Z,476
2016-07-11T06:24:05.666Z,468
2016-07-11T06:25:06.285Z,544
2016-07-11T06:26:06.831Z,540
2016-07-11T06:27:05.695Z,540
2016-07-11T06:28:05.693Z,588
2016-07-11T06:29:05.094Z,680
2016-07-11T06:30:06.375Z,740
2016-07-11T06:31:06.376Z,816
2016-07-11T06:32:06.946Z,892
2016-07-11T06:33:05.735Z,940
2016-07-11T06:34:06.962Z,1048
2016-07-11T06:35:07.233Z,1112
2016-07-11T06:36:06.368Z,1208
2016-07-11T06:37:06.399Z,992
2016-07-11T06:38:05.155Z,952
2016-07-11T06:39:05.163Z,1076
2016-07-11T06:40:05.780Z,1196
2016-07-11T06:41:06.402Z,1036
2016-07-11T06:42:06.408Z,856
2016-07-11T06:43:07.028Z,672
2016-07-11T06:44:05.812Z,568
2016-07-11T06:45:05.824Z,576
2016-07-11T06:46:07.903Z,628
2016-07-11T06:47:05.833Z,692
2016-07-11T06:48:05.891Z,712
2016-07-11T06:49:05.846Z,812
2016-07-11T06:50:07.979Z,1156
2016-07-11T06:51:06.473Z,892
2016-07-11T06:52:07.093Z,904
2016-07-11T06:53:06.490Z,940
2016-07-11T06:54:06.492Z,1048
2016-07-11T06:55:05.895Z,1032
2016-07-11T06:56:07.325Z,1028
2016-07-11T06:57:07.030Z,968
2016-07-11T06:58:07.139Z,900
2016-07-11T06:59:06.467Z,880
2016-07-11T07:00:05.310Z,864
2016-07-11T07:01:08.315Z,784
2016-07-11T07:02:05.328Z,704
2016-07-11T07:03:07.171Z,628
2016-07-11T07:04:07.178Z,512
2016-07-11T07:05:07.183Z,448
2016-07-11T07:06:07.210Z,436
2016-07-11T07:07:07.211Z,424
2016-07-11T07:08:05.989Z,476
2016-07-11T07:09:05.993Z,524
2016-07-11T07:10:06.812Z,584
2016-07-11T07:11:06.621Z,672
2016-07-11T07:12:07.665Z,684
2016-07-11T07:13:07.249Z,764
2016-07-11T07:14:06.642Z,944
2016-07-11T07:15:06.650Z,1032
2016-07-11T07:16:06.042Z,3492
2016-07-11T07:17:07.278Z,1704
2016-07-11T07:18:06.676Z,2348
2016-07-11T07:19:07.286Z,1836
2016-07-11T07:20:06.684Z,2316
2016-07-11T07:21:07.357Z,2096
2016-07-11T07:22:06.697Z,2356
2016-07-11T07:23:06.702Z,1924
2016-07-11T07:24:07.337Z,1996
2016-07-11T07:25:06.925Z,2004
2016-07-11T07:26:06.110Z,1636
2016-07-11T07:27:06.124Z,1428
2016-07-11T07:28:06.127Z,1408
2016-07-11T07:29:06.751Z,1408
2016-07-11T07:30:06.810Z,1680
2016-07-11T07:31:06.809Z,2192
2016-07-11T07:32:06.973Z,5464
2016-07-11T07:33:06.829Z,23872
2016-07-11T07:34:08.334Z,13548
2016-07-11T07:35:07.409Z,37504
2016-07-11T07:36:07.417Z,18784
2016-07-11T07:37:07.426Z,7020
2016-07-11T07:38:06.206Z,2844
2016-07-11T07:39:07.447Z,2592
2016-07-11T07:40:07.448Z,2328
2016-07-11T07:41:06.231Z,5392
2016-07-11T07:42:06.862Z,5268
2016-07-11T07:43:06.499Z,3500
2016-07-11T07:44:06.865Z,2712
2016-07-11T07:45:07.920Z,2460
2016-07-11T07:46:06.885Z,2380
2016-07-11T07:47:07.076Z,2096
2016-07-11T07:48:06.901Z,1900
2016-07-11T07:49:06.953Z,1760
2016-07-11T07:50:06.911Z,1612
2016-07-11T07:51:06.314Z,1524
2016-07-11T07:52:06.932Z,1612
2016-07-11T07:53:07.558Z,1664
2016-07-11T07:54:06.947Z,1916
2016-07-11T07:55:06.347Z,2604
2016-07-11T07:56:08.164Z,3056
2016-07-11T07:57:06.361Z,2904
2016-07-11T07:58:06.858Z,2676
2016-07-11T07:59:06.989Z,2604
2016-07-11T08:00:06.998Z,2572
2016-07-11T08:01:06.388Z,2944
2016-07-11T08:02:06.399Z,3244
2016-07-11T08:03:06.403Z,3108
2016-07-11T08:04:07.018Z,2892
2016-07-11T08:05:06.423Z,2628
2016-07-11T08:06:07.649Z,2172
2016-07-11T08:07:07.745Z,2040
2016-07-11T08:08:06.452Z,2492
2016-07-11T08:09:06.288Z,3152
2016-07-11T08:10:06.461Z,3432
2016-07-11T08:11:07.081Z,3348
2016-07-11T08:12:07.696Z,3412
2016-07-11T08:13:07.099Z,2904
2016-07-11T08:14:06.491Z,2736
2016-07-11T08:15:07.115Z,2492
2016-07-11T08:16:06.538Z,2484
2016-07-11T08:17:07.126Z,2580
2016-07-11T08:18:08.609Z,2776
2016-07-11T08:19:07.144Z,2852
2016-07-11T08:20:06.673Z,2864
2016-07-11T08:21:07.766Z,3288
2016-07-11T08:22:08.017Z,3812
2016-07-11T08:23:06.558Z,3696
2016-07-11T08:24:06.566Z,3236
2016-07-11T08:25:06.586Z,3188
2016-07-11T08:26:06.609Z,3248
2016-07-11T08:27:05.986Z,2744
2016-07-11T08:28:06.599Z,2164
2016-07-11T08:29:07.721Z,1984
2016-07-11T08:30:06.055Z,1924
2016-07-11T08:31:06.677Z,2156
2016-07-11T08:32:08.077Z,2220
2016-07-11T08:33:07.610Z,2212
2016-07-11T08:34:06.695Z,2104
2016-07-11T08:35:06.755Z,1828
2016-07-11T08:36:06.778Z,1324
2016-07-11T08:37:08.409Z,1592
2016-07-11T08:38:06.774Z,1456
2016-07-11T08:39:06.070Z,2160
2016-07-11T08:40:07.538Z,2176
2016-07-11T08:41:06.797Z,1736
2016-07-11T08:42:06.801Z,1596
2016-07-11T08:43:06.812Z,1792
2016-07-11T08:44:08.079Z,2156
2016-07-11T08:45:06.820Z,2332
2016-07-11T08:46:07.534Z,2892
2016-07-11T08:47:06.843Z,2744
2016-07-11T08:48:07.557Z,2244
2016-07-11T08:49:06.851Z,2388
2016-07-11T08:50:08.274Z,2788
2016-07-11T08:51:06.870Z,3268
2016-07-11T08:52:07.587Z,3536
2016-07-11T08:53:06.886Z,3204
2016-07-11T08:54:08.307Z,3164
2016-07-11T08:55:08.300Z,3360
2016-07-11T08:56:06.921Z,3540
2016-07-11T08:57:08.334Z,3716
2016-07-11T08:58:06.923Z,2828
2016-07-11T08:59:06.932Z,2496
2016-07-11T09:00:08.442Z,2760
2016-07-11T09:01:06.949Z,3248
2016-07-11T09:02:08.363Z,2796
2016-07-11T09:03:06.962Z,1864
2016-07-11T09:04:08.846Z,1656
2016-07-11T09:05:08.387Z,1608
2016-07-11T09:06:08.081Z,1472
2016-07-11T09:07:07.695Z,2292
2016-07-11T09:08:06.990Z,1872
2016-07-11T09:09:07.717Z,2024
2016-07-11T09:10:08.433Z,1668
2016-07-11T09:11:07.016Z,1732
2016-07-11T09:12:07.736Z,1892
2016-07-11T09:13:07.739Z,1668
2016-07-11T09:14:07.745Z,2108
2016-07-11T09:15:08.867Z,1796
2016-07-11T09:16:07.764Z,1544
2016-07-11T09:17:08.219Z,1532
2016-07-11T09:18:07.778Z,1860
2016-07-11T09:19:06.776Z,1976
2016-07-11T09:20:07.084Z,1924
2016-07-11T09:21:06.388Z,1876
2016-07-11T09:22:07.096Z,1740
2016-07-11T09:23:07.818Z,1900
2016-07-11T09:24:07.116Z,2128
2016-07-11T09:25:07.827Z,2376
2016-07-11T09:26:08.822Z,1952
2016-07-11T09:27:07.843Z,1804
2016-07-11T09:28:08.188Z,2460
2016-07-11T09:29:07.870Z,2444
2016-07-11T09:30:07.911Z,2612
2016-07-11T09:31:07.513Z,3260
2016-07-11T09:32:07.884Z,2096
2016-07-11T09:33:07.897Z,2220
2016-07-11T09:34:07.899Z,2844
2016-07-11T09:35:07.951Z,3352
2016-07-11T09:36:07.922Z,2656
2016-07-11T09:37:07.918Z,2636
2016-07-11T09:38:07.926Z,2696
2016-07-11T09:39:08.233Z,2692
2016-07-11T09:40:07.228Z,2568
2016-07-11T09:41:08.734Z,2640
2016-07-11T09:42:07.253Z,2784
2016-07-11T09:43:07.956Z,2452
2016-07-11T09:44:07.968Z,2880
2016-07-11T09:45:07.979Z,2516
2016-07-11T09:46:08.688Z,2396
2016-07-11T09:47:07.996Z,2672
2016-07-11T09:48:07.999Z,2116
2016-07-11T09:49:08.713Z,2252
2016-07-11T09:50:08.056Z,2244
2016-07-11T09:51:08.730Z,2180
2016-07-11T09:52:08.029Z,1880
2016-07-11T09:53:07.330Z,1964
2016-07-11T09:54:08.047Z,1860
2016-07-11T09:55:08.754Z,1888
2016-07-11T09:56:07.357Z,1856
2016-07-11T09:57:08.284Z,2764
2016-07-11T09:58:08.777Z,2396
2016-07-11T09:59:07.372Z,2252
2016-07-11T10:00:07.380Z,2144
2016-07-11T10:01:07.485Z,2052
2016-07-11T10:02:07.390Z,1940
2016-07-11T10:03:08.876Z,1972
2016-07-11T10:04:08.822Z,1912
2016-07-11T10:05:08.837Z,1748
2016-07-11T10:06:08.130Z,1972
2016-07-11T10:07:08.140Z,1880
2016-07-11T10:08:08.149Z,2012
2016-07-11T10:09:07.443Z,2240
2016-07-11T10:10:08.156Z,2436
2016-07-11T10:11:08.205Z,2268
2016-07-11T10:12:08.200Z,2196
2016-07-11T10:13:08.402Z,2112
2016-07-11T10:14:09.340Z,2036
2016-07-11T10:15:06.784Z,2056
2016-07-11T10:16:07.789Z,2112
2016-07-11T10:17:06.804Z,2028
2016-07-11T10:18:08.219Z,2020
2016-07-11T10:19:07.516Z,1784
2016-07-11T10:20:07.526Z,1784
2016-07-11T10:21:07.559Z,1600
2016-07-11T10:22:08.950Z,1584
2016-07-11T10:23:07.653Z,1420
2016-07-11T10:24:07.555Z,1556
2016-07-11T10:25:09.688Z,1540
2016-07-11T10:26:08.274Z,1536
2016-07-11T10:27:08.277Z,1452
2016-07-11T10:28:08.291Z,1248
2016-07-11T10:29:08.298Z,2260
2016-07-11T10:30:07.595Z,1724
2016-07-11T10:31:07.602Z,1800
2016-07-11T10:32:09.021Z,1700
2016-07-11T10:33:09.030Z,1604
2016-07-11T10:34:08.331Z,1436
2016-07-11T10:35:07.677Z,1220
2016-07-11T10:36:06.932Z,1976
2016-07-11T10:37:08.351Z,1388
2016-07-11T10:38:08.354Z,1616
2016-07-11T10:39:07.656Z,1736
2016-07-11T10:40:08.381Z,1808
2016-07-11T10:41:08.370Z,2056
2016-07-11T10:42:08.386Z,1892
2016-07-11T10:43:09.106Z,1776
2016-07-11T10:44:07.689Z,1760
2016-07-11T10:45:07.721Z,2612
2016-07-11T10:46:07.706Z,1548
2016-07-11T10:47:10.890Z,1500
2016-07-11T10:48:07.718Z,1392
2016-07-11T10:49:08.077Z,1400
2016-07-11T10:50:09.153Z,1756
2016-07-11T10:51:07.027Z,2236
2016-07-11T10:52:07.750Z,2280
2016-07-11T10:53:08.473Z,2228
2016-07-11T10:54:09.172Z,1360
2016-07-11T10:55:09.177Z,1420
2016-07-11T10:56:08.477Z,1176
2016-07-11T10:57:07.777Z,1252
2016-07-11T10:58:09.752Z,1596
2016-07-11T10:59:09.431Z,2312
2016-07-11T11:00:07.798Z,2376
2016-07-11T11:01:07.808Z,2068
2016-07-11T11:02:09.468Z,1536
2016-07-11T11:03:09.231Z,1596
2016-07-11T11:04:08.537Z,1636
2016-07-11T11:05:09.250Z,1660
2016-07-11T11:06:08.543Z,1704
2016-07-11T11:07:08.556Z,1744
2016-07-11T11:08:08.559Z,1648
2016-07-11T11:09:09.266Z,1764
2016-07-11T11:10:07.874Z,1696
2016-07-11T11:11:08.580Z,1616
2016-07-11T11:12:08.584Z,1504
2016-07-11T11:13:09.186Z,1636
2016-07-11T11:14:09.309Z,1832
2016-07-11T11:15:08.838Z,2248
2016-07-11T11:16:08.613Z,1860
2016-07-11T11:17:08.619Z,2416
2016-07-11T11:18:07.918Z,1992
2016-07-11T11:19:08.637Z,2388
2016-07-11T11:20:08.638Z,1624
2016-07-11T11:21:07.965Z,2264
2016-07-11T11:22:10.221Z,2328
2016-07-11T11:23:07.953Z,1544
2016-07-11T11:24:09.766Z,1480
2016-07-11T11:25:09.381Z,1480
2016-07-11T11:26:09.392Z,1356
2016-07-11T11:27:08.009Z,1348
2016-07-11T11:28:09.407Z,1372
2016-07-11T11:29:08.003Z,1376
2016-07-11T11:30:08.764Z,1484
2016-07-11T11:31:08.723Z,1524
2016-07-11T11:32:09.432Z,1460
2016-07-11T11:33:10.001Z,1352
2016-07-11T11:34:08.034Z,1336
2016-07-11T11:35:09.145Z,1472
2016-07-11T11:36:07.661Z,1260
2016-07-11T11:37:08.763Z,1372
2016-07-11T11:38:08.061Z,1352
2016-07-11T11:39:08.067Z,1428
2016-07-11T11:40:08.814Z,2072
2016-07-11T11:41:09.498Z,1520
2016-07-11T11:42:08.116Z,2180
2016-07-11T11:43:08.810Z,2056
2016-07-11T11:44:09.770Z,1384
2016-07-11T11:45:09.524Z,1284
2016-07-11T11:46:09.723Z,1868
2016-07-11T11:47:08.834Z,1356
2016-07-11T11:48:08.840Z,1380
2016-07-11T11:49:08.186Z,1260
2016-07-11T11:50:09.605Z,1184
2016-07-11T11:51:09.101Z,1380
2016-07-11T11:52:09.595Z,1684
2016-07-11T11:53:08.870Z,1740
2016-07-11T11:54:10.726Z,1660
2016-07-11T11:55:08.364Z,1096
2016-07-11T11:56:08.577Z,1180
2016-07-11T11:57:10.327Z,1200
2016-07-11T11:58:08.995Z,1340
2016-07-11T11:59:24.627Z,1404
2016-07-11T12:00:09.863Z,1364
2016-07-11T12:01:09.747Z,1288
2016-07-11T12:02:09.189Z,1932
2016-07-11T12:03:09.972Z,1708
2016-07-11T12:04:09.427Z,1820
2016-07-11T12:05:08.496Z,2100
2016-07-11T12:06:09.803Z,2108
2016-07-11T12:07:08.849Z,1360
2016-07-11T12:08:09.557Z,1244
2016-07-11T12:09:09.298Z,1060
2016-07-11T12:10:10.886Z,1060
2016-07-11T12:11:09.984Z,1132
2016-07-11T12:12:08.525Z,1240
2016-07-11T12:13:08.017Z,1256
2016-07-11T12:14:09.737Z,1404
2016-07-11T12:15:09.738Z,2016
2016-07-11T12:16:08.334Z,2000
2016-07-11T12:17:09.046Z,2000
2016-07-11T12:18:08.588Z,1984
2016-07-11T12:19:09.304Z,1320
2016-07-11T12:20:09.077Z,1208
2016-07-11T12:21:07.761Z,1556
2016-07-11T12:22:09.794Z,1740
2016-07-11T12:23:08.409Z,1828
2016-07-11T12:24:09.871Z,1728
2016-07-11T12:25:09.257Z,1208
2016-07-11T12:26:09.127Z,1548
2016-07-11T12:27:09.825Z,1592
2016-07-11T12:28:08.421Z,1428
2016-07-11T12:29:09.134Z,1488
2016-07-11T12:30:09.673Z,1556
2016-07-11T12:31:09.149Z,1176
2016-07-11T12:32:10.155Z,1076
2016-07-11T12:33:09.210Z,1052
2016-07-11T12:34:09.271Z,1420
2016-07-11T12:35:09.975Z,1276
2016-07-11T12:36:07.768Z,1564
2016-07-11T12:37:07.942Z,1452
2016-07-11T12:38:08.516Z,1636
2016-07-11T12:39:08.504Z,1204
2016-07-11T12:40:09.924Z,1588
2016-07-11T12:41:09.222Z,1244
2016-07-11T12:42:09.936Z,1092
2016-07-11T12:43:10.950Z,1052
2016-07-11T12:44:08.536Z,1292
2016-07-11T12:45:08.691Z,1336
2016-07-11T12:46:09.259Z,1308
2016-07-11T12:47:07.849Z,1136
2016-07-11T12:48:10.338Z,1108
2016-07-11T12:49:10.045Z,1380
2016-07-11T12:50:09.364Z,1384
2016-07-11T12:51:07.882Z,1220
2016-07-11T12:52:10.160Z,1376
2016-07-11T12:53:10.016Z,1644
2016-07-11T12:54:10.841Z,1584
2016-07-11T12:55:07.907Z,1504
2016-07-11T12:56:09.340Z,1532
2016-07-11T12:57:08.637Z,1760
2016-07-11T12:58:09.477Z,1768
2016-07-11T12:59:09.352Z,1692
2016-07-11T13:00:09.397Z,1560
2016-07-11T13:01:09.371Z,1196
2016-07-11T13:02:08.669Z,1108
2016-07-11T13:03:09.350Z,1060
2016-07-11T13:04:08.708Z,1028
2016-07-11T13:05:08.692Z,1032
2016-07-11T13:06:08.699Z,1020
2016-07-11T13:07:10.734Z,1060
2016-07-11T13:08:09.424Z,1100
2016-07-11T13:09:08.725Z,1224
2016-07-11T13:10:09.435Z,1364
2016-07-11T13:11:08.956Z,1396
2016-07-11T13:12:10.157Z,1640
2016-07-11T13:13:08.747Z,1416
2016-07-11T13:14:09.463Z,1300
2016-07-11T13:15:08.766Z,1124
2016-07-11T13:16:10.279Z,956
2016-07-11T13:17:09.483Z,936
2016-07-11T13:18:10.195Z,952
2016-07-11T13:19:08.796Z,984
2016-07-11T13:20:10.814Z,1184
2016-07-11T13:21:09.515Z,1192
2016-07-11T13:22:08.815Z,1228
2016-07-11T13:23:09.534Z,1368
2016-07-11T13:24:08.827Z,1372
2016-07-11T13:25:08.866Z,1388
2016-07-11T13:26:09.556Z,1360
2016-07-11T13:27:09.548Z,1344
2016-07-11T13:28:10.277Z,1316
2016-07-11T13:29:09.881Z,1468
2016-07-11T13:30:08.876Z,1436
2016-07-11T13:31:10.494Z,1352
2016-07-11T13:32:10.306Z,1384
2016-07-11T13:33:08.894Z,1556
2016-07-11T13:34:09.614Z,1476
2016-07-11T13:35:08.915Z,1284
2016-07-11T13:36:08.923Z,1236
2016-07-11T13:37:09.632Z,1168
2016-07-11T13:38:10.037Z,1136
2016-07-11T13:39:10.010Z,1112
2016-07-11T13:40:11.300Z,1092
2016-07-11T13:41:08.956Z,976
2016-07-11T13:42:08.969Z,1032
2016-07-11T13:43:09.683Z,1008
2016-07-11T13:44:10.635Z,896
2016-07-11T13:45:08.283Z,948
2016-07-11T13:46:10.647Z,1088
2016-07-11T13:47:09.712Z,1100